sensor_id;sensor_type;location;lat;lon;timestamp;pressure;altitude;pressure_sealevel;temperature;humidity
62374;BME280;48409;49.030;1.820;2023-02-13T00:00:08;102679.09;;;4.27;62.79
62374;BME280;48409;49.030;1.820;2023-02-13T00:02:35;102673.00;;;4.25;62.77
62374;BME280;48409;49.030;1.820;2023-02-13T00:05:00;102664.28;;;4.24;62.75
62374;BME280;48409;49.030;1.820;2023-02-13T00:07:26;102660.84;;;4.24;62.94
62374;BME280;48409;49.030;1.820;2023-02-13T00:09:51;102657.31;;;4.22;62.75
62374;BME280;48409;49.030;1.820;2023-02-13T00:12:17;102666.00;;;4.21;62.75
62374;BME280;48409;49.030;1.820;2023-02-13T00:14:42;102659.91;;;4.20;62.76
62374;BME280;48409;49.030;1.820;2023-02-13T00:17:07;102667.72;;;4.20;62.78
62374;BME280;48409;49.030;1.820;2023-02-13T00:19:33;102668.56;;;4.17;62.71
62374;BME280;48409;49.030;1.820;2023-02-13T00:21:58;102666.84;;;4.18;62.52
62374;BME280;48409;49.030;1.820;2023-02-13T00:24:24;102665.06;;;4.15;62.84
62374;BME280;48409;49.030;1.820;2023-02-13T00:26:49;102660.69;;;4.14;62.86
62374;BME280;48409;49.030;1.820;2023-02-13T00:29:15;102659.84;;;4.14;62.95
62374;BME280;48409;49.030;1.820;2023-02-13T00:31:40;102660.66;;;4.11;62.92
62374;BME280;48409;49.030;1.820;2023-02-13T00:34:06;102671.09;;;4.11;62.68
62374;BME280;48409;49.030;1.820;2023-02-13T00:36:31;102667.59;;;4.11;62.82
62374;BME280;48409;49.030;1.820;2023-02-13T00:38:57;102657.16;;;4.09;62.63
62374;BME280;48409;49.030;1.820;2023-02-13T00:41:22;102657.13;;;4.06;62.71
62374;BME280;48409;49.030;1.820;2023-02-13T00:43:48;102657.97;;;4.05;62.70
62374;BME280;48409;49.030;1.820;2023-02-13T00:46:15;102660.56;;;4.05;62.86
62374;BME280;48409;49.030;1.820;2023-02-13T00:48:41;102657.09;;;4.03;62.84
62374;BME280;48409;49.030;1.820;2023-02-13T00:51:07;102657.94;;;4.00;62.71
62374;BME280;48409;49.030;1.820;2023-02-13T00:53:33;102652.69;;;3.99;62.59
62374;BME280;48409;49.030;1.820;2023-02-13T00:55:59;102650.97;;;3.99;62.79
62374;BME280;48409;49.030;1.820;2023-02-13T00:58:24;102653.53;;;3.98;62.73
62374;BME280;48409;49.030;1.820;2023-02-13T01:00:51;102652.66;;;3.97;62.65
62374;BME280;48409;49.030;1.820;2023-02-13T01:03:17;102644.81;;;3.96;62.65
62374;BME280;48409;49.030;1.820;2023-02-13T01:05:43;102639.59;;;3.96;62.78
62374;BME280;48409;49.030;1.820;2023-02-13T01:08:09;102643.06;;;3.95;62.82
62374;BME280;48409;49.030;1.820;2023-02-13T01:10:36;102651.75;;;3.94;62.98
62374;BME280;48409;49.030;1.820;2023-02-13T01:13:01;102642.19;;;3.94;62.76
62374;BME280;48409;49.030;1.820;2023-02-13T01:15:27;102644.75;;;3.92;62.54
62374;BME280;48409;49.030;1.820;2023-02-13T01:17:53;102637.81;;;3.91;62.78
62374;BME280;48409;49.030;1.820;2023-02-13T01:20:19;102644.75;;;3.92;62.77
62374;BME280;48409;49.030;1.820;2023-02-13T01:22:44;102646.50;;;3.90;62.60
62374;BME280;48409;49.030;1.820;2023-02-13T01:25:10;102641.28;;;3.90;62.75
62374;BME280;48409;49.030;1.820;2023-02-13T01:27:35;102642.13;;;3.89;62.85
62374;BME280;48409;49.030;1.820;2023-02-13T01:30:04;102642.09;;;3.88;62.62
62374;BME280;48409;49.030;1.820;2023-02-13T01:32:30;102639.47;;;3.86;62.58
62374;BME280;48409;49.030;1.820;2023-02-13T01:34:55;102635.09;;;3.84;62.81
62374;BME280;48409;49.030;1.820;2023-02-13T01:37:20;102637.72;;;3.84;62.70
62374;BME280;48409;49.030;1.820;2023-02-13T01:39:46;102634.22;;;3.83;62.67
62374;BME280;48409;49.030;1.820;2023-02-13T01:42:16;102635.09;;;3.84;62.83
62374;BME280;48409;49.030;1.820;2023-02-13T01:44:54;102632.47;;;3.82;62.74
62374;BME280;48409;49.030;1.820;2023-02-13T01:50:37;102635.91;;;3.79;62.46
62374;BME280;48409;49.030;1.820;2023-02-13T01:53:23;102631.53;;;3.77;62.80
62374;BME280;48409;49.030;1.820;2023-02-13T01:58:26;102632.34;;;3.73;62.71
62374;BME280;48409;49.030;1.820;2023-02-13T02:00:53;102640.13;;;3.71;62.68
62374;BME280;48409;49.030;1.820;2023-02-13T02:03:20;102630.56;;;3.69;62.49
62374;BME280;48409;49.030;1.820;2023-02-13T02:05:47;102641.81;;;3.66;62.38
62374;BME280;48409;49.030;1.820;2023-02-13T02:08:14;102640.03;;;3.63;62.78
62374;BME280;48409;49.030;1.820;2023-02-13T02:10:39;102644.34;;;3.61;62.50
62374;BME280;48409;49.030;1.820;2023-02-13T02:13:12;102643.44;;;3.59;62.52
62374;BME280;48409;49.030;1.820;2023-02-13T02:15:38;102642.56;;;3.57;62.56
62374;BME280;48409;49.030;1.820;2023-02-13T02:18:14;102637.31;;;3.54;62.45
62374;BME280;48409;49.030;1.820;2023-02-13T02:41:36;102636.13;;;3.33;62.79
62374;BME280;48409;49.030;1.820;2023-02-13T02:49:29;102638.59;;;3.24;62.58
62374;BME280;48409;49.030;1.820;2023-02-13T02:52:18;102627.28;;;3.23;62.79
62374;BME280;48409;49.030;1.820;2023-02-13T02:54:53;102629.88;;;3.22;62.59
62374;BME280;48409;49.030;1.820;2023-02-13T02:57:31;102616.81;;;3.19;62.69
62374;BME280;48409;49.030;1.820;2023-02-13T03:00:16;102617.66;;;3.18;62.65
62374;BME280;48409;49.030;1.820;2023-02-13T03:03:02;102614.13;;;3.16;62.45
62374;BME280;48409;49.030;1.820;2023-02-13T03:05:47;102606.25;;;3.12;62.57
62374;BME280;48409;49.030;1.820;2023-02-13T03:08:34;102607.13;;;3.11;62.64
62374;BME280;48409;49.030;1.820;2023-02-13T03:11:18;102611.44;;;3.09;62.73
62374;BME280;48409;49.030;1.820;2023-02-13T03:14:02;102611.44;;;3.09;62.84
62374;BME280;48409;49.030;1.820;2023-02-13T03:16:28;102608.81;;;3.08;62.78
62374;BME280;48409;49.030;1.820;2023-02-13T03:19:16;102609.66;;;3.07;62.67
62374;BME280;48409;49.030;1.820;2023-02-13T03:22:16;102613.13;;;3.07;62.53
62374;BME280;48409;49.030;1.820;2023-02-13T03:25:10;102617.44;;;3.05;62.70
62374;BME280;48409;49.030;1.820;2023-02-13T03:33:11;102613.94;;;3.03;62.73
62374;BME280;48409;49.030;1.820;2023-02-13T03:41:12;102606.97;;;3.02;62.81
62374;BME280;48409;49.030;1.820;2023-02-13T03:46:29;102607.84;;;3.01;62.67
62374;BME280;48409;49.030;1.820;2023-02-13T03:48:55;102615.63;;;2.99;62.53
62374;BME280;48409;49.030;1.820;2023-02-13T03:51:55;102620.81;;;2.99;62.67
62374;BME280;48409;49.030;1.820;2023-02-13T03:54:26;102624.31;;;3.00;62.90
62374;BME280;48409;49.030;1.820;2023-02-13T03:57:14;102624.28;;;2.98;62.51
62374;BME280;48409;49.030;1.820;2023-02-13T03:59:59;102617.34;;;2.97;62.74
62374;BME280;48409;49.030;1.820;2023-02-13T04:02:27;102618.16;;;2.96;62.79
62374;BME280;48409;49.030;1.820;2023-02-13T04:04:59;102625.13;;;2.96;62.73
62374;BME280;48409;49.030;1.820;2023-02-13T04:07:28;102625.94;;;2.95;62.88
62374;BME280;48409;49.030;1.820;2023-02-13T04:09:55;102619.88;;;2.94;62.82
62374;BME280;48409;49.030;1.820;2023-02-13T04:12:30;102625.06;;;2.93;62.81
62374;BME280;48409;49.030;1.820;2023-02-13T04:15:03;102627.66;;;2.93;62.63
62374;BME280;48409;49.030;1.820;2023-02-13T04:17:36;102620.72;;;2.92;62.65
62374;BME280;48409;49.030;1.820;2023-02-13T04:20:03;102619.81;;;2.91;62.75
62374;BME280;48409;49.030;1.820;2023-02-13T04:22:29;102615.50;;;2.92;62.65
62374;BME280;48409;49.030;1.820;2023-02-13T04:24:55;102613.75;;;2.91;62.63
62374;BME280;48409;49.030;1.820;2023-02-13T04:27:20;102624.16;;;2.91;62.61
62374;BME280;48409;49.030;1.820;2023-02-13T04:29:47;102611.97;;;2.90;62.96
62374;BME280;48409;49.030;1.820;2023-02-13T04:32:12;102617.19;;;2.90;62.74
62374;BME280;48409;49.030;1.820;2023-02-13T04:34:38;102622.38;;;2.90;62.61
62374;BME280;48409;49.030;1.820;2023-02-13T04:37:04;102615.44;;;2.89;62.74
62374;BME280;48409;49.030;1.820;2023-02-13T04:39:29;102618.03;;;2.89;62.62
62374;BME280;48409;49.030;1.820;2023-02-13T04:41:54;102614.53;;;2.88;62.80
62374;BME280;48409;49.030;1.820;2023-02-13T04:44:19;102618.91;;;2.87;62.86
62374;BME280;48409;49.030;1.820;2023-02-13T04:46:45;102618.91;;;2.87;62.66
62374;BME280;48409;49.030;1.820;2023-02-13T04:49:10;102613.69;;;2.87;62.77
62374;BME280;48409;49.030;1.820;2023-02-13T04:51:35;102625.84;;;2.89;62.78
62374;BME280;48409;49.030;1.820;2023-02-13T04:54:01;102619.78;;;2.90;62.72
62374;BME280;48409;49.030;1.820;2023-02-13T04:56:26;102620.66;;;2.89;62.62
62374;BME280;48409;49.030;1.820;2023-02-13T04:58:51;102614.53;;;2.88;62.77
62374;BME280;48409;49.030;1.820;2023-02-13T05:01:17;102615.41;;;2.87;62.83
62374;BME280;48409;49.030;1.820;2023-02-13T05:03:43;102616.25;;;2.86;62.68
62374;BME280;48409;49.030;1.820;2023-02-13T05:06:08;102625.78;;;2.85;62.87
62374;BME280;48409;49.030;1.820;2023-02-13T05:08:33;102622.34;;;2.86;62.73
62374;BME280;48409;49.030;1.820;2023-02-13T05:10:59;102623.22;;;2.87;62.58
62374;BME280;48409;49.030;1.820;2023-02-13T05:13:24;102621.47;;;2.86;62.71
62374;BME280;48409;49.030;1.820;2023-02-13T05:15:49;102617.16;;;2.86;62.67
62374;BME280;48409;49.030;1.820;2023-02-13T05:18:16;102619.72;;;2.85;62.74
62374;BME280;48409;49.030;1.820;2023-02-13T05:20:42;102620.59;;;2.85;62.85
62374;BME280;48409;49.030;1.820;2023-02-13T05:23:08;102624.06;;;2.86;62.93
62374;BME280;48409;49.030;1.820;2023-02-13T05:25:49;102625.78;;;2.85;62.72
62374;BME280;48409;49.030;1.820;2023-02-13T05:28:14;102627.56;;;2.86;62.88
62374;BME280;48409;49.030;1.820;2023-02-13T05:30:58;102623.19;;;2.85;62.72
62374;BME280;48409;49.030;1.820;2023-02-13T05:33:23;102625.78;;;2.85;62.95
62374;BME280;48409;49.030;1.820;2023-02-13T05:35:49;102624.09;;;2.87;62.96
62374;BME280;48409;49.030;1.820;2023-02-13T05:38:14;102621.50;;;2.87;62.68
62374;BME280;48409;49.030;1.820;2023-02-13T05:40:39;102619.75;;;2.88;62.80
62374;BME280;48409;49.030;1.820;2023-02-13T05:43:05;102620.66;;;2.89;62.98
62374;BME280;48409;49.030;1.820;2023-02-13T05:45:30;102625.84;;;2.89;62.79
62374;BME280;48409;49.030;1.820;2023-02-13T05:47:55;102625.03;;;2.91;62.79
62374;BME280;48409;49.030;1.820;2023-02-13T05:50:21;102633.69;;;2.90;62.77
62374;BME280;48409;49.030;1.820;2023-02-13T05:52:47;102631.13;;;2.92;63.04
62374;BME280;48409;49.030;1.820;2023-02-13T05:55:12;102632.88;;;2.93;62.79
62374;BME280;48409;49.030;1.820;2023-02-13T05:57:37;102631.13;;;2.92;62.84
62374;BME280;48409;49.030;1.820;2023-02-13T06:00:03;102631.16;;;2.95;62.95
62374;BME280;48409;49.030;1.820;2023-02-13T06:02:29;102631.16;;;2.95;62.89
62374;BME280;48409;49.030;1.820;2023-02-13T06:04:54;102631.16;;;2.95;62.94
62374;BME280;48409;49.030;1.820;2023-02-13T06:07:19;102635.53;;;2.96;62.86
62374;BME280;48409;49.030;1.820;2023-02-13T06:09:44;102629.47;;;2.97;62.84
62374;BME280;48409;49.030;1.820;2023-02-13T06:12:10;102623.41;;;2.98;62.96
62374;BME280;48409;49.030;1.820;2023-02-13T06:14:35;102620.78;;;2.98;62.94
62374;BME280;48409;49.030;1.820;2023-02-13T06:17:00;102626.88;;;2.98;62.93
62374;BME280;48409;49.030;1.820;2023-02-13T06:19:25;102627.75;;;2.99;62.94
62374;BME280;48409;49.030;1.820;2023-02-13T06:21:51;102629.53;;;3.00;63.13
62374;BME280;48409;49.030;1.820;2023-02-13T06:24:16;102634.75;;;3.00;63.17
62374;BME280;48409;49.030;1.820;2023-02-13T06:26:41;102633.03;;;3.02;62.98
62374;BME280;48409;49.030;1.820;2023-02-13T06:29:06;102630.41;;;3.02;62.81
62374;BME280;48409;49.030;1.820;2023-02-13T06:31:33;102638.22;;;3.02;63.09
62374;BME280;48409;49.030;1.820;2023-02-13T06:33:58;102630.44;;;3.04;62.99
62374;BME280;48409;49.030;1.820;2023-02-13T06:36:24;102619.13;;;3.03;63.17
62374;BME280;48409;49.030;1.820;2023-02-13T06:38:49;102624.34;;;3.03;62.91
62374;BME280;48409;49.030;1.820;2023-02-13T06:41:14;102627.88;;;3.05;62.93
62374;BME280;48409;49.030;1.820;2023-02-13T06:43:40;102633.09;;;3.05;62.95
62374;BME280;48409;49.030;1.820;2023-02-13T06:46:05;102634.81;;;3.06;62.80
62374;BME280;48409;49.030;1.820;2023-02-13T06:48:30;102635.72;;;3.07;62.82
62374;BME280;48409;49.030;1.820;2023-02-13T06:50:56;102638.31;;;3.08;63.00
62374;BME280;48409;49.030;1.820;2023-02-13T06:53:21;102633.09;;;3.08;63.20
62374;BME280;48409;49.030;1.820;2023-02-13T06:55:49;102639.19;;;3.09;63.07
62374;BME280;48409;49.030;1.820;2023-02-13T06:58:14;102643.59;;;3.11;63.21
62374;BME280;48409;49.030;1.820;2023-02-13T07:00:40;102643.59;;;3.11;62.98
62374;BME280;48409;49.030;1.820;2023-02-13T07:03:05;102640.09;;;3.09;63.23
62374;BME280;48409;49.030;1.820;2023-02-13T07:05:31;102648.78;;;3.11;63.04
62374;BME280;48409;49.030;1.820;2023-02-13T07:07:57;102642.72;;;3.12;62.96
62374;BME280;48409;49.030;1.820;2023-02-13T07:10:22;102641.91;;;3.13;63.15
62374;BME280;48409;49.030;1.820;2023-02-13T07:12:48;102649.72;;;3.13;63.32
62374;BME280;48409;49.030;1.820;2023-02-13T07:15:14;102648.84;;;3.15;62.97
62374;BME280;48409;49.030;1.820;2023-02-13T07:17:39;102648.00;;;3.16;63.05
62374;BME280;48409;49.030;1.820;2023-02-13T07:20:05;102650.59;;;3.16;63.20
62374;BME280;48409;49.030;1.820;2023-02-13T07:22:30;102648.03;;;3.17;63.23
62374;BME280;48409;49.030;1.820;2023-02-13T07:24:56;102648.03;;;3.17;63.02
62374;BME280;48409;49.030;1.820;2023-02-13T07:27:23;102649.78;;;3.18;63.04
62374;BME280;48409;49.030;1.820;2023-02-13T07:29:48;102651.50;;;3.19;63.26
62374;BME280;48409;49.030;1.820;2023-02-13T07:32:13;102647.16;;;3.18;63.08
62374;BME280;48409;49.030;1.820;2023-02-13T07:34:39;102655.00;;;3.20;63.05
62374;BME280;48409;49.030;1.820;2023-02-13T07:37:04;102662.81;;;3.20;63.07
62374;BME280;48409;49.030;1.820;2023-02-13T07:39:29;102660.25;;;3.21;63.21
62374;BME280;48409;49.030;1.820;2023-02-13T07:41:55;102655.03;;;3.21;63.37
62374;BME280;48409;49.030;1.820;2023-02-13T07:44:21;102655.03;;;3.21;63.36
62374;BME280;48409;49.030;1.820;2023-02-13T07:46:46;102664.63;;;3.24;63.19
62374;BME280;48409;49.030;1.820;2023-02-13T07:49:11;102658.56;;;3.25;63.18
62374;BME280;48409;49.030;1.820;2023-02-13T07:51:36;102664.66;;;3.25;63.16
62374;BME280;48409;49.030;1.820;2023-02-13T07:54:02;102665.50;;;3.26;63.27
62374;BME280;48409;49.030;1.820;2023-02-13T07:56:27;102672.50;;;3.27;63.08
62374;BME280;48409;49.030;1.820;2023-02-13T07:58:52;102668.19;;;3.29;63.19
62374;BME280;48409;49.030;1.820;2023-02-13T08:01:17;102672.53;;;3.30;63.16
62374;BME280;48409;49.030;1.820;2023-02-13T08:03:46;102679.53;;;3.31;63.34
62374;BME280;48409;49.030;1.820;2023-02-13T08:06:11;102685.63;;;3.33;63.43
62374;BME280;48409;49.030;1.820;2023-02-13T08:08:36;102680.41;;;3.33;63.18
62374;BME280;48409;49.030;1.820;2023-02-13T08:11:06;102677.81;;;3.35;63.30
62374;BME280;48409;49.030;1.820;2023-02-13T08:13:51;102683.94;;;3.35;63.59
62374;BME280;48409;49.030;1.820;2023-02-13T08:16:16;102686.53;;;3.37;63.55
62374;BME280;48409;49.030;1.820;2023-02-13T08:18:41;102687.44;;;3.39;63.42
62374;BME280;48409;49.030;1.820;2023-02-13T08:21:07;102692.72;;;3.42;63.29
62374;BME280;48409;49.030;1.820;2023-02-13T08:23:32;102681.44;;;3.43;63.40
62374;BME280;48409;49.030;1.820;2023-02-13T08:26:01;102689.28;;;3.45;63.51
62374;BME280;48409;49.030;1.820;2023-02-13T08:28:27;102688.44;;;3.47;63.56
62374;BME280;48409;49.030;1.820;2023-02-13T08:30:53;102685.88;;;3.49;63.40
62374;BME280;48409;49.030;1.820;2023-02-13T08:33:18;102693.69;;;3.50;63.56
62374;BME280;48409;49.030;1.820;2023-02-13T08:35:43;102692.88;;;3.53;63.66
62374;BME280;48409;49.030;1.820;2023-02-13T08:38:08;102691.16;;;3.55;63.66
62374;BME280;48409;49.030;1.820;2023-02-13T08:40:34;102698.16;;;3.58;63.67
62374;BME280;48409;49.030;1.820;2023-02-13T08:43:08;102695.56;;;3.59;63.70
62374;BME280;48409;49.030;1.820;2023-02-13T08:45:33;102698.25;;;3.62;63.84
62374;BME280;48409;49.030;1.820;2023-02-13T08:47:59;102694.78;;;3.63;63.58
62374;BME280;48409;49.030;1.820;2023-02-13T08:50:26;102696.56;;;3.68;63.67
62374;BME280;48409;49.030;1.820;2023-02-13T08:52:52;102698.31;;;3.69;63.74
62374;BME280;48409;49.030;1.820;2023-02-13T08:55:17;102692.28;;;3.71;63.58
62374;BME280;48409;49.030;1.820;2023-02-13T08:57:43;102695.78;;;3.75;63.74
62374;BME280;48409;49.030;1.820;2023-02-13T09:00:08;102693.25;;;3.78;63.70
62374;BME280;48409;49.030;1.820;2023-02-13T09:02:33;102697.66;;;3.82;63.84
62374;BME280;48409;49.030;1.820;2023-02-13T09:04:58;102696.78;;;3.83;63.84
62374;BME280;48409;49.030;1.820;2023-02-13T09:07:24;102697.72;;;3.87;63.88
62374;BME280;48409;49.030;1.820;2023-02-13T09:09:49;102702.09;;;3.89;63.71
62374;BME280;48409;49.030;1.820;2023-02-13T09:12:14;102707.34;;;3.92;63.73
62374;BME280;48409;49.030;1.820;2023-02-13T09:14:40;102702.19;;;3.96;63.85
62374;BME280;48409;49.030;1.820;2023-02-13T09:17:05;102709.19;;;4.00;63.74
62374;BME280;48409;49.030;1.820;2023-02-13T09:19:30;102715.31;;;4.02;63.84
62374;BME280;48409;49.030;1.820;2023-02-13T09:21:55;102707.53;;;4.05;63.92
62374;BME280;48409;49.030;1.820;2023-02-13T09:24:21;102709.31;;;4.09;64.14
62374;BME280;48409;49.030;1.820;2023-02-13T09:26:46;102706.75;;;4.12;63.87
62374;BME280;48409;49.030;1.820;2023-02-13T09:29:11;102703.31;;;4.15;64.00
62374;BME280;48409;49.030;1.820;2023-02-13T09:31:36;102710.31;;;4.17;64.03
62374;BME280;48409;49.030;1.820;2023-02-13T09:34:02;102712.06;;;4.20;63.95
62374;BME280;48409;49.030;1.820;2023-02-13T09:36:27;102707.78;;;4.24;64.10
62374;BME280;48409;49.030;1.820;2023-02-13T09:38:53;102713.03;;;4.27;64.09
62374;BME280;48409;49.030;1.820;2023-02-13T09:41:28;102708.75;;;4.30;64.01
62374;BME280;48409;49.030;1.820;2023-02-13T09:44:02;102707.91;;;4.33;64.22
62374;BME280;48409;49.030;1.820;2023-02-13T09:46:29;102707.06;;;4.36;64.15
62374;BME280;48409;49.030;1.820;2023-02-13T09:48:57;102704.47;;;4.37;64.21
62374;BME280;48409;49.030;1.820;2023-02-13T09:51:24;102708.00;;;4.42;64.08
62374;BME280;48409;49.030;1.820;2023-02-13T09:54:00;102703.69;;;4.44;64.21
62374;BME280;48409;49.030;1.820;2023-02-13T09:58:55;102705.50;;;4.52;64.18
62374;BME280;48409;49.030;1.820;2023-02-13T10:03:54;102700.34;;;4.58;64.25
62374;BME280;48409;49.030;1.820;2023-02-13T10:16:34;102692.72;;;4.77;64.28
62374;BME280;48409;49.030;1.820;2023-02-13T10:21:31;102698.06;;;4.86;64.47
62374;BME280;48409;49.030;1.820;2023-02-13T10:24:05;102694.63;;;4.90;64.58
62374;BME280;48409;49.030;1.820;2023-02-13T10:26:35;102691.16;;;4.94;64.74
62374;BME280;48409;49.030;1.820;2023-02-13T10:29:14;102681.66;;;5.00;64.69
62374;BME280;48409;49.030;1.820;2023-02-13T10:32:02;102679.06;;;5.04;64.62
62374;BME280;48409;49.030;1.820;2023-02-13T10:34:30;102679.13;;;5.09;64.89
62374;BME280;48409;49.030;1.820;2023-02-13T10:36:58;102683.50;;;5.16;64.63
62374;BME280;48409;49.030;1.820;2023-02-13T10:39:25;102686.16;;;5.19;64.70
62374;BME280;48409;49.030;1.820;2023-02-13T10:41:54;102678.34;;;5.26;64.98
62374;BME280;48409;49.030;1.820;2023-02-13T10:44:32;102680.16;;;5.31;64.91
62374;BME280;48409;49.030;1.820;2023-02-13T10:49:51;102673.28;;;5.44;64.93
62374;BME280;48409;49.030;1.820;2023-02-13T11:02:46;102672.69;;;5.89;65.77
62374;BME280;48409;49.030;1.820;2023-02-13T11:05:20;102673.63;;;5.99;65.70
62374;BME280;48409;49.030;1.820;2023-02-13T11:07:46;102673.69;;;6.11;65.99
62374;BME280;48409;49.030;1.820;2023-02-13T11:10:19;102671.13;;;6.22;66.07
62374;BME280;48409;49.030;1.820;2023-02-13T11:12:45;102670.28;;;6.34;66.04
62374;BME280;48409;49.030;1.820;2023-02-13T11:15:20;102658.13;;;6.47;66.07
62374;BME280;48409;49.030;1.820;2023-02-13T11:17:46;102657.28;;;6.58;66.16
62374;BME280;48409;49.030;1.820;2023-02-13T11:20:30;102658.19;;;6.69;66.19
62374;BME280;48409;49.030;1.820;2023-02-13T11:22:56;102653.81;;;6.81;66.04
62374;BME280;48409;49.030;1.820;2023-02-13T11:25:37;102652.09;;;6.92;65.97
62374;BME280;48409;49.030;1.820;2023-02-13T11:28:20;102648.59;;;7.02;65.93
62374;BME280;48409;49.030;1.820;2023-02-13T11:30:46;102637.25;;;7.10;65.77
62374;BME280;48409;49.030;1.820;2023-02-13T11:35:41;102633.75;;;7.26;65.93
62374;BME280;48409;49.030;1.820;2023-02-13T11:38:11;102632.84;;;7.34;65.69
62374;BME280;48409;49.030;1.820;2023-02-13T11:40:37;102629.38;;;7.41;65.47
62374;BME280;48409;49.030;1.820;2023-02-13T11:43:04;102632.84;;;7.46;65.46
62374;BME280;48409;49.030;1.820;2023-02-13T11:45:30;102626.72;;;7.50;65.60
62374;BME280;48409;49.030;1.820;2023-02-13T11:47:56;102622.34;;;7.55;65.35
62374;BME280;48409;49.030;1.820;2023-02-13T11:52:51;102616.19;;;7.61;65.27
62374;BME280;48409;49.030;1.820;2023-02-13T11:58:00;102611.81;;;7.68;65.26
62374;BME280;48409;49.030;1.820;2023-02-13T12:00:30;102610.94;;;7.70;65.17
62374;BME280;48409;49.030;1.820;2023-02-13T12:02:59;102604.78;;;7.73;65.18
62374;BME280;48409;49.030;1.820;2023-02-13T12:05:27;102603.91;;;7.76;65.21
62374;BME280;48409;49.030;1.820;2023-02-13T12:07:54;102603.91;;;7.79;65.14
62374;BME280;48409;49.030;1.820;2023-02-13T12:10:22;102599.53;;;7.79;65.04
62374;BME280;48409;49.030;1.820;2023-02-13T12:15:49;102597.78;;;7.84;65.28
62374;BME280;48409;49.030;1.820;2023-02-13T12:18:24;102598.63;;;7.87;65.08
62374;BME280;48409;49.030;1.820;2023-02-13T12:21:04;102592.53;;;7.88;65.27
62374;BME280;48409;49.030;1.820;2023-02-13T12:28:59;102592.47;;;7.94;65.14
62374;BME280;48409;49.030;1.820;2023-02-13T12:36:40;102576.69;;;8.02;65.19
62374;BME280;48409;49.030;1.820;2023-02-13T12:52:24;102562.59;;;8.23;65.42
62374;BME280;48409;49.030;1.820;2023-02-13T13:02:49;102551.97;;;8.35;65.29
62374;BME280;48409;49.030;1.820;2023-02-13T13:19:06;102535.22;;;8.58;65.42
62374;BME280;48409;49.030;1.820;2023-02-13T13:20:57;102531.69;;;8.62;65.20
62374;BME280;48409;49.030;1.820;2023-02-13T13:23:29;102525.50;;;8.67;65.46
62374;BME280;48409;49.030;1.820;2023-02-13T13:26:01;102523.75;;;8.69;65.44
62374;BME280;48409;49.030;1.820;2023-02-13T13:28:33;102529.00;;;8.72;65.36
62374;BME280;48409;49.030;1.820;2023-02-13T13:31:01;102527.19;;;8.77;65.28
62374;BME280;48409;49.030;1.820;2023-02-13T13:33:27;102528.91;;;8.81;65.23
62374;BME280;48409;49.030;1.820;2023-02-13T13:38:23;102520.06;;;8.88;65.41
62374;BME280;48409;49.030;1.820;2023-02-13T13:41:00;102522.66;;;8.92;65.28
62374;BME280;48409;49.030;1.820;2023-02-13T13:46:07;102514.72;;;8.98;65.32
62374;BME280;48409;49.030;1.820;2023-02-13T13:48:39;102508.53;;;9.02;65.46
62374;BME280;48409;49.030;1.820;2023-02-13T13:51:11;102505.88;;;9.05;65.42
62374;BME280;48409;49.030;1.820;2023-02-13T13:54:16;102518.13;;;9.09;65.30
62374;BME280;48409;49.030;1.820;2023-02-13T13:56:23;102514.56;;;9.13;65.37
62374;BME280;48409;49.030;1.820;2023-02-13T13:58:48;102512.75;;;9.17;65.50
62374;BME280;48409;49.030;1.820;2023-02-13T14:03:41;102503.06;;;9.24;65.36
62374;BME280;48409;49.030;1.820;2023-02-13T14:06:09;102507.38;;;9.28;65.49
62374;BME280;48409;49.030;1.820;2023-02-13T14:13:50;102506.41;;;9.38;65.41
62374;BME280;48409;49.030;1.820;2023-02-13T14:18:59;102510.69;;;9.44;65.37
62374;BME280;48409;49.030;1.820;2023-02-13T14:21:25;102513.31;;;9.47;65.53
62374;BME280;48409;49.030;1.820;2023-02-13T14:23:50;102508.00;;;9.50;65.49
62374;BME280;48409;49.030;1.820;2023-02-13T14:31:21;102508.81;;;9.57;65.44
62374;BME280;48409;49.030;1.820;2023-02-13T14:36:26;102506.97;;;9.62;65.33
62374;BME280;48409;49.030;1.820;2023-02-13T14:38:56;102508.72;;;9.63;65.43
62374;BME280;48409;49.030;1.820;2023-02-13T14:44:12;102506.88;;;9.69;65.40
62374;BME280;48409;49.030;1.820;2023-02-13T14:46:40;102499.84;;;9.71;65.33
62374;BME280;48409;49.030;1.820;2023-02-13T14:49:20;102503.31;;;9.73;65.30
62374;BME280;48409;49.030;1.820;2023-02-13T14:51:48;102506.81;;;9.75;65.27
62374;BME280;48409;49.030;1.820;2023-02-13T14:54:17;102503.28;;;9.76;65.35
62374;BME280;48409;49.030;1.820;2023-02-13T14:56:45;102503.25;;;9.79;65.21
62374;BME280;48409;49.030;1.820;2023-02-13T14:59:13;102508.50;;;9.81;65.42
62374;BME280;48409;49.030;1.820;2023-02-13T15:01:44;102507.59;;;9.83;65.26
62374;BME280;48409;49.030;1.820;2023-02-13T15:04:16;102501.44;;;9.84;65.33
62374;BME280;48409;49.030;1.820;2023-02-13T15:06:43;102499.66;;;9.85;65.34
62374;BME280;48409;49.030;1.820;2023-02-13T15:09:15;102501.41;;;9.86;65.26
62374;BME280;48409;49.030;1.820;2023-02-13T15:11:42;102487.38;;;9.85;65.27
62374;BME280;48409;49.030;1.820;2023-02-13T15:14:41;102494.38;;;9.86;65.18
62374;BME280;48409;49.030;1.820;2023-02-13T15:19:36;102494.34;;;9.89;65.24
62374;BME280;48409;49.030;1.820;2023-02-13T15:22:14;102502.22;;;9.91;65.31
62374;BME280;48409;49.030;1.820;2023-02-13T15:24:45;102495.16;;;9.91;65.08
62374;BME280;48409;49.030;1.820;2023-02-13T15:27:34;102497.81;;;9.91;65.21
62374;BME280;48409;49.030;1.820;2023-02-13T15:29:58;102496.06;;;9.92;65.25
62374;BME280;48409;49.030;1.820;2023-02-13T15:32:26;102498.69;;;9.92;65.20
62374;BME280;48409;49.030;1.820;2023-02-13T15:34:51;102500.41;;;9.93;65.23
62374;BME280;48409;49.030;1.820;2023-02-13T15:37:24;102493.41;;;9.93;65.12
62374;BME280;48409;49.030;1.820;2023-02-13T15:39:51;102491.66;;;9.94;65.18
62374;BME280;48409;49.030;1.820;2023-02-13T15:42:16;102482.88;;;9.93;65.13
62374;BME280;48409;49.030;1.820;2023-02-13T15:44:42;102488.13;;;9.93;65.21
62374;BME280;48409;49.030;1.820;2023-02-13T15:49:44;102486.38;;;9.94;65.12